Time,TemperatureF,DewpointF,PressureIn,WindDirection,WindDirectionDegrees,WindSpeedMPH,WindSpeedGustMPH,Humidity,HourlyPrecipIn,Conditions,Clouds,dailyrainin,SoftwareType,DateUTC
2015-08-02 00:00:00,75.0,47.7,28.77,WNW,300,0.0,6.0,38,0.00,,---,0.00,VWS V15.00,2015-08-02 07:00:00,
2015-08-02 00:05:00,75.2,47.9,28.77,WNW,303,2.0,4.0,38,0.00,,---,0.00,VWS V15.00,2015-08-02 07:05:00,
2015-08-02 00:10:00,75.6,47.5,28.77,NW,307,4.0,5.0,37,0.00,,---,0.00,VWS V15.00,2015-08-02 07:10:00,
2015-08-02 00:15:00,75.9,47.1,28.77,North,355,1.0,3.0,36,0.00,,---,0.00,VWS V15.00,2015-08-02 07:15:00,
2015-08-02 00:20:00,75.8,47.0,28.77,North,350,0.0,2.0,36,0.00,,---,0.00,VWS V15.00,2015-08-02 07:20:00,
2015-08-02 00:25:00,75.3,47.3,28.77,NNW,333,0.0,4.0,37,0.00,,---,0.00,VWS V15.00,2015-08-02 07:25:00,
2015-08-02 00:30:00,75.3,48.0,28.77,North,360,0.0,3.0,38,0.00,,---,0.00,VWS V15.00,2015-08-02 07:30:00,
2015-08-02 00:35:00,75.3,48.0,28.78,NNE,12,0.0,2.0,38,0.00,,---,0.00,VWS V15.00,2015-08-02 07:35:00,
2015-08-02 00:40:00,75.6,47.5,28.78,NW,309,0.0,2.0,37,0.00,,---,0.00,VWS V15.00,2015-08-02 07:40:00,
2015-08-02 00:45:00,75.4,48.0,28.78,NNE,27,2.0,9.0,38,0.00,,---,0.00,VWS V15.00,2015-08-02 07:45:00,
2015-08-02 00:50:00,73.1,48.7,28.78,North,10,5.0,7.0,42,0.00,,---,0.00,VWS V15.00,2015-08-02 07:50:00,
2015-08-02 00:55:00,71.7,49.2,28.78,North,5,3.0,7.0,45,0.00,,---,0.00,VWS V15.00,2015-08-02 07:55:00,
2015-08-02 01:00:00,71.1,49.9,28.78,North,360,0.0,2.0,47,0.00,,---,0.00,VWS V15.00,2015-08-02 08:00:00,
2015-08-02 01:05:00,70.6,50.0,28.78,North,360,2.0,2.0,48,0.00,,---,0.00,VWS V15.00,2015-08-02 08:05:00,
2015-08-02 01:10:00,70.2,50.2,28.78,SSE,159,0.0,4.0,49,0.00,,---,0.00,VWS V15.00,2015-08-02 08:10:00,
2015-08-02 01:15:00,71.0,49.2,28.79,NW,325,4.0,4.0,46,0.00,,---,0.00,VWS V15.00,2015-08-02 08:15:00,
2015-08-02 01:20:00,70.4,49.2,28.79,NE,38,0.0,5.0,47,0.00,,---,0.00,VWS V15.00,2015-08-02 08:20:00,
2015-08-02 01:25:00,70.3,48.6,28.78,NE,38,0.0,1.0,46,0.00,,---,0.00,VWS V15.00,2015-08-02 08:25:00,
2015-08-02 01:30:00,71.1,49.3,28.78,NNE,25,4.0,5.0,46,0.00,,---,0.00,VWS V15.00,2015-08-02 08:30:00,
2015-08-02 01:35:00,70.4,49.2,28.78,NNE,24,0.0,0.0,47,0.00,,---,0.00,VWS V15.00,2015-08-02 08:35:00,
2015-08-02 01:40:00,70.5,47.6,28.77,NNE,24,0.0,3.0,44,0.00,,---,0.00,VWS V15.00,2015-08-02 08:40:00,
2015-08-02 01:45:00,70.6,47.7,28.77,North,5,0.0,1.0,44,0.00,,---,0.00,VWS V15.00,2015-08-02 08:45:00,
2015-08-02 01:50:00,70.4,47.5,28.77,North,355,0.0,3.0,44,0.00,,---,0.00,VWS V15.00,2015-08-02 08:50:00,
2015-08-02 01:55:00,70.9,47.3,28.77,North,355,3.0,3.0,43,0.00,,---,0.00,VWS V15.00,2015-08-02 08:55:00,
2015-08-02 02:00:00,70.4,47.5,28.77,North,355,3.0,4.0,44,0.00,,---,0.00,VWS V15.00,2015-08-02 09:00:00,
2015-08-02 02:05:00,69.6,47.9,28.77,North,355,1.0,2.0,46,0.00,,---,0.00,VWS V15.00,2015-08-02 09:05:00,
2015-08-02 02:10:00,69.3,47.7,28.77,North,355,3.0,5.0,46,0.00,,---,0.00,VWS V15.00,2015-08-02 09:10:00,
2015-08-02 02:15:00,69.3,47.7,28.77,North,350,0.0,3.0,46,0.00,,---,0.00,VWS V15.00,2015-08-02 09:15:00,
2015-08-02 02:20:00,69.2,47.6,28.77,North,350,0.0,0.0,46,0.00,,---,0.00,VWS V15.00,2015-08-02 09:20:00,
2015-08-02 02:25:00,69.4,47.2,28.76,North,349,0.0,0.0,45,0.00,,---,0.00,VWS V15.00,2015-08-02 09:25:00,
2015-08-02 02:30:00,70.1,46.0,28.76,North,349,0.0,0.0,42,0.00,,---,0.00,VWS V15.00,2015-08-02 09:30:00,
2015-08-02 02:35:00,70.2,45.4,28.76,North,349,0.0,0.0,41,0.00,,---,0.00,VWS V15.00,2015-08-02 09:35:00,
2015-08-02 02:40:00,70.2,46.1,28.76,North,349,0.0,0.0,42,0.00,,---,0.00,VWS V15.00,2015-08-02 09:40:00,
2015-08-02 02:45:00,69.5,46.0,28.76,North,349,0.0,1.0,43,0.00,,---,0.00,VWS V15.00,2015-08-02 09:45:00,
2015-08-02 02:50:00,68.5,45.8,28.77,North,349,0.0,2.0,44,0.00,,---,0.00,VWS V15.00,2015-08-02 09:50:00,
2015-08-02 02:55:00,68.5,45.8,28.77,North,349,0.0,0.0,44,0.00,,---,0.00,VWS V15.00,2015-08-02 09:55:00,
2015-08-02 03:00:00,68.4,46.8,28.77,North,349,0.0,0.0,46,0.00,,---,0.00,VWS V15.00,2015-08-02 10:00:00,
2015-08-02 03:05:00,68.1,46.6,28.77,North,349,0.0,3.0,46,0.00,,---,0.00,VWS V15.00,2015-08-02 10:05:00,
2015-08-02 03:10:00,67.9,47.0,28.77,North,350,1.0,5.0,47,0.00,,---,0.00,VWS V15.00,2015-08-02 10:10:00,
2015-08-02 03:15:00,67.9,47.0,28.77,North,350,0.0,0.0,47,0.00,,---,0.00,VWS V15.00,2015-08-02 10:15:00,
2015-08-02 03:20:00,68.4,47.4,28.77,North,350,0.0,0.0,47,0.00,,---,0.00,VWS V15.00,2015-08-02 10:20:00,
2015-08-02 03:25:00,68.9,47.9,28.77,North,350,0.0,0.0,47,0.00,,---,0.00,VWS V15.00,2015-08-02 10:25:00,
2015-08-02 03:30:00,69.0,47.4,28.77,North,355,1.0,2.0,46,0.00,,---,0.00,VWS V15.00,2015-08-02 10:30:00,
2015-08-02 03:35:00,69.4,47.7,28.77,NNE,18,1.0,2.0,46,0.00,,---,0.00,VWS V15.00,2015-08-02 10:35:00,
2015-08-02 03:40:00,69.8,47.5,28.77,ENE,71,0.0,2.0,45,0.00,,---,0.00,VWS V15.00,2015-08-02 10:40:00,
2015-08-02 03:45:00,70.0,47.7,28.77,ENE,71,0.0,2.0,45,0.00,,---,0.00,VWS V15.00,2015-08-02 10:45:00,
2015-08-02 03:50:00,69.8,47.5,28.77,NNE,32,2.0,4.0,45,0.00,,---,0.00,VWS V15.00,2015-08-02 10:50:00,
2015-08-02 03:55:00,70.0,47.1,28.76,NNE,26,4.0,5.0,44,0.00,,---,0.00,VWS V15.00,2015-08-02 10:55:00,
2015-08-02 04:00:00,68.9,47.3,28.77,North,11,4.0,6.0,46,0.00,,---,0.00,VWS V15.00,2015-08-02 11:00:00,
2015-08-02 04:05:00,68.1,48.2,28.77,North,11,4.0,6.0,49,0.00,,---,0.00,VWS V15.00,2015-08-02 11:05:00,
2015-08-02 04:10:00,67.5,48.8,28.77,NNE,15,4.0,5.0,51,0.00,,---,0.00,VWS V15.00,2015-08-02 11:10:00,
2015-08-02 04:15:00,67.3,48.0,28.77,NNE,15,3.0,4.0,50,0.00,,---,0.00,VWS V15.00,2015-08-02 11:15:00,
2015-08-02 04:20:00,67.6,48.3,28.77,NNE,14,3.0,4.0,50,0.00,,---,0.00,VWS V15.00,2015-08-02 11:20:00,
2015-08-02 04:25:00,67.9,48.1,28.77,North,5,5.0,5.0,49,0.00,,---,0.00,VWS V15.00,2015-08-02 11:25:00,
2015-08-02 04:30:00,68.1,47.7,28.77,North,355,5.0,6.0,48,0.00,,---,0.00,VWS V15.00,2015-08-02 11:30:00,
2015-08-02 04:35:00,67.6,47.8,28.77,NNE,31,4.0,6.0,49,0.00,,---,0.00,VWS V15.00,2015-08-02 11:35:00,
2015-08-02 04:40:00,67.1,47.9,28.77,NNE,27,6.0,8.0,50,0.00,,---,0.00,VWS V15.00,2015-08-02 11:40:00,
2015-08-02 04:45:00,66.7,48.5,28.77,North,11,3.0,7.0,52,0.00,,---,0.00,VWS V15.00,2015-08-02 11:45:00,
2015-08-02 04:50:00,66.4,48.8,28.77,NW,319,5.0,5.0,53,0.00,,---,0.00,VWS V15.00,2015-08-02 11:50:00,
2015-08-02 04:55:00,66.5,48.9,28.77,NNW,348,5.0,7.0,53,0.00,,---,0.00,VWS V15.00,2015-08-02 11:55:00,
2015-08-02 05:00:00,66.4,48.8,28.77,North,5,6.0,7.0,53,0.00,,---,0.00,VWS V15.00,2015-08-02 12:00:00,
2015-08-02 05:05:00,66.2,48.6,28.77,North,355,2.0,3.0,53,0.00,,---,0.00,VWS V15.00,2015-08-02 12:05:00,
2015-08-02 05:10:00,66.3,48.7,28.77,North,5,0.0,6.0,53,0.00,,---,0.00,VWS V15.00,2015-08-02 12:10:00,
2015-08-02 05:15:00,66.4,48.3,28.77,NE,37,0.0,1.0,52,0.00,,---,0.00,VWS V15.00,2015-08-02 12:15:00,
2015-08-02 05:20:00,67.2,47.4,28.77,NNE,33,1.0,3.0,49,0.00,,---,0.00,VWS V15.00,2015-08-02 12:20:00,
2015-08-02 05:25:00,67.0,48.3,28.78,NNE,12,5.0,6.0,51,0.00,,---,0.00,VWS V15.00,2015-08-02 12:25:00,
2015-08-02 05:30:00,66.4,48.3,28.77,North,355,4.0,7.0,52,0.00,,---,0.00,VWS V15.00,2015-08-02 12:30:00,
2015-08-02 05:35:00,66.3,48.7,28.77,North,5,8.0,8.0,53,0.00,,---,0.00,VWS V15.00,2015-08-02 12:35:00,
2015-08-02 05:40:00,66.3,48.7,28.77,North,355,4.0,6.0,53,0.00,,---,0.00,VWS V15.00,2015-08-02 12:40:00,
2015-08-02 05:45:00,66.5,48.3,28.77,North,351,4.0,5.0,52,0.00,,---,0.00,VWS V15.00,2015-08-02 12:45:00,
2015-08-02 05:50:00,66.4,48.8,28.77,NNE,17,3.0,5.0,53,0.00,,---,0.00,VWS V15.00,2015-08-02 12:50:00,
2015-08-02 06:57:00,67.3,49.6,28.80,NNE,17,0.0,0.0,53,0.00,,---,0.00,VWS V15.00,2015-08-02 13:57:00,
2015-08-02 07:02:00,67.9,50.2,28.80,NNE,17,0.0,2.0,53,0.00,,---,0.00,VWS V15.00,2015-08-02 14:02:00,
2015-08-02 07:07:00,68.1,49.8,28.80,NNE,30,0.0,0.0,52,0.00,,---,0.00,VWS V15.00,2015-08-02 14:07:00,
2015-08-02 07:12:00,68.2,50.4,28.80,NNE,30,0.0,1.0,53,0.00,,---,0.00,VWS V15.00,2015-08-02 14:12:00,
2015-08-02 07:17:00,68.4,50.6,28.80,NNE,30,0.0,1.0,53,0.00,,---,0.00,VWS V15.00,2015-08-02 14:17:00,
2015-08-02 07:22:00,68.6,50.8,28.79,NNE,29,0.0,1.0,53,0.00,,---,0.00,VWS V15.00,2015-08-02 14:22:00,
2015-08-02 07:27:00,69.0,50.7,28.79,NNE,18,0.0,4.0,52,0.00,,---,0.00,VWS V15.00,2015-08-02 14:27:00,
2015-08-02 07:32:00,69.6,50.7,28.79,North,5,0.0,3.0,51,0.00,,---,0.00,VWS V15.00,2015-08-02 14:32:00,
2015-08-02 07:37:00,69.8,50.9,28.79,NNW,336,1.0,4.0,51,0.00,,---,0.00,VWS V15.00,2015-08-02 14:37:00,
2015-08-02 07:42:00,70.1,50.6,28.79,North,360,1.0,4.0,50,0.00,,---,0.00,VWS V15.00,2015-08-02 14:42:00,
2015-08-02 07:47:00,70.2,50.7,28.79,North,11,0.0,5.0,50,0.00,,---,0.00,VWS V15.00,2015-08-02 14:47:00,
2015-08-02 07:52:00,70.6,51.6,28.79,NNE,14,2.0,5.0,51,0.00,,---,0.00,VWS V15.00,2015-08-02 14:52:00,
2015-08-02 07:57:00,70.6,51.1,28.79,NNE,17,3.0,4.0,50,0.00,,---,0.00,VWS V15.00,2015-08-02 14:57:00,
2015-08-02 08:02:00,70.7,51.2,28.79,NNE,19,2.0,3.0,50,0.00,,---,0.00,VWS V15.00,2015-08-02 15:02:00,
2015-08-02 08:07:00,70.8,51.8,28.80,NNE,19,1.0,1.0,51,0.00,,---,0.00,VWS V15.00,2015-08-02 15:07:00,
2015-08-02 08:12:00,70.8,51.3,28.80,NNE,22,3.0,4.0,50,0.00,,---,0.00,VWS V15.00,2015-08-02 15:12:00,
2015-08-02 08:17:00,70.9,50.8,28.80,NNE,21,0.0,3.0,49,0.00,,---,0.00,VWS V15.00,2015-08-02 15:17:00,
2015-08-02 08:22:00,71.0,51.5,28.80,NNE,20,0.0,3.0,50,0.00,,---,0.00,VWS V15.00,2015-08-02 15:22:00,
2015-08-02 08:27:00,71.3,51.2,28.80,NNE,20,1.0,2.0,49,0.00,,---,0.00,VWS V15.00,2015-08-02 15:27:00,
2015-08-02 08:32:00,71.9,51.7,28.80,NNE,20,2.0,3.0,49,0.00,,---,0.00,VWS V15.00,2015-08-02 15:32:00,
2015-08-02 08:42:00,71.7,51.5,28.81,NNE,20,0.0,0.0,49,0.00,,---,0.00,VWS V15.00,2015-08-02 15:42:00,
2015-08-02 08:47:00,72.0,51.3,28.81,SSW,205,3.0,6.0,48,0.00,,---,0.00,VWS V15.00,2015-08-02 15:47:00,
2015-08-02 08:52:00,71.8,51.1,28.82,SSW,198,2.0,6.0,48,0.00,,---,0.00,VWS V15.00,2015-08-02 15:52:00,
2015-08-02 08:57:00,71.9,51.7,28.82,SSW,209,2.0,4.0,49,0.00,,---,0.00,VWS V15.00,2015-08-02 15:57:00,
2015-08-02 09:02:00,72.1,51.3,28.82,SW,221,4.0,4.0,48,0.00,,---,0.00,VWS V15.00,2015-08-02 16:02:00,
2015-08-02 09:07:00,72.0,51.3,28.82,SW,220,3.0,3.0,48,0.00,,---,0.00,VWS V15.00,2015-08-02 16:07:00,
2015-08-02 09:12:00,72.1,50.8,28.82,SW,227,1.0,4.0,47,0.00,,---,0.00,VWS V15.00,2015-08-02 16:12:00,
2015-08-02 09:17:00,72.1,50.8,28.82,SW,225,2.0,4.0,47,0.00,,---,0.00,VWS V15.00,2015-08-02 16:17:00,
2015-08-02 09:22:00,72.1,50.8,28.82,SW,225,0.0,2.0,47,0.00,,---,0.00,VWS V15.00,2015-08-02 16:22:00,
2015-08-02 09:27:00,73.0,51.6,28.81,West,262,3.0,4.0,47,0.00,,---,0.00,VWS V15.00,2015-08-02 16:27:00,
2015-08-02 09:32:00,73.2,50.6,28.81,West,262,2.0,4.0,45,0.00,,---,0.00,VWS V15.00,2015-08-02 16:32:00,
2015-08-02 09:37:00,74.4,51.1,28.80,West,272,2.0,4.0,44,0.00,,---,0.00,VWS V15.00,2015-08-02 16:37:00,
2015-08-02 09:42:00,74.9,51.5,28.80,West,274,4.0,5.0,44,0.00,,---,0.00,VWS V15.00,2015-08-02 16:42:00,
2015-08-02 09:47:00,75.5,50.2,28.80,West,272,2.0,6.0,41,0.00,,---,0.00,VWS V15.00,2015-08-02 16:47:00,
2015-08-02 09:52:00,75.8,49.8,28.80,West,271,0.0,2.0,40,0.00,,---,0.00,VWS V15.00,2015-08-02 16:52:00,
2015-08-02 09:57:00,76.9,50.1,28.80,West,278,3.0,4.0,39,0.00,,---,0.00,VWS V15.00,2015-08-02 16:57:00,
2015-08-02 10:02:00,76.6,49.1,28.80,NNW,348,2.0,6.0,38,0.00,,---,0.00,VWS V15.00,2015-08-02 17:02:00,
2015-08-02 10:07:00,76.9,49.4,28.79,NNW,348,1.0,3.0,38,0.00,,---,0.00,VWS V15.00,2015-08-02 17:07:00,
2015-08-02 10:12:00,77.5,49.9,28.80,North,355,0.0,4.0,38,0.00,,---,0.00,VWS V15.00,2015-08-02 17:12:00,
2015-08-02 10:17:00,77.4,49.1,28.80,NE,51,4.0,6.0,37,0.00,,---,0.00,VWS V15.00,2015-08-02 17:17:00,
2015-08-02 10:22:00,77.0,48.0,28.80,East,96,4.0,6.0,36,0.00,,---,0.00,VWS V15.00,2015-08-02 17:22:00,
2015-08-02 10:27:00,76.8,47.1,28.80,ENE,78,1.0,6.0,35,0.00,,---,0.00,VWS V15.00,2015-08-02 17:27:00,
2015-08-02 10:32:00,77.0,47.3,28.80,South,189,2.0,6.0,35,0.00,,---,0.00,VWS V15.00,2015-08-02 17:32:00,
2015-08-02 10:37:00,77.0,49.5,28.80,ESE,110,6.0,6.0,38,0.00,,---,0.00,VWS V15.00,2015-08-02 17:37:00,
2015-08-02 10:42:00,76.2,51.5,28.80,South,180,4.0,10.0,42,0.00,,---,0.00,VWS V15.00,2015-08-02 17:42:00,
2015-08-02 10:47:00,75.3,51.3,28.81,SSW,194,3.0,6.0,43,0.00,,---,0.00,VWS V15.00,2015-08-02 17:47:00,
2015-08-02 10:52:00,75.3,50.7,28.80,SSE,168,6.0,7.0,42,0.00,,---,0.00,VWS V15.00,2015-08-02 17:52:00,
2015-08-02 10:57:00,75.9,49.2,28.81,SSE,166,4.0,6.0,39,0.00,,---,0.00,VWS V15.00,2015-08-02 17:57:00,
2015-08-02 11:02:00,76.0,48.6,28.80,SSW,192,2.0,6.0,38,0.00,,---,0.00,VWS V15.00,2015-08-02 18:02:00,
2015-08-02 11:07:00,76.5,48.3,28.80,South,173,5.0,5.0,37,0.00,,---,0.00,VWS V15.00,2015-08-02 18:07:00,
2015-08-02 11:12:00,76.5,50.4,28.80,South,187,3.0,6.0,40,0.00,,---,0.00,VWS V15.00,2015-08-02 18:12:00,
2015-08-02 11:17:00,76.5,49.0,28.80,South,187,0.0,4.0,38,0.00,,---,0.00,VWS V15.00,2015-08-02 18:17:00,
2015-08-02 11:22:00,76.4,48.2,28.80,South,187,1.0,2.0,37,0.00,,---,0.00,VWS V15.00,2015-08-02 18:22:00,
2015-08-02 11:27:00,76.3,47.4,28.80,South,188,0.0,2.0,36,0.00,,---,0.00,VWS V15.00,2015-08-02 18:27:00,
2015-08-02 11:32:00,76.5,49.7,28.80,South,188,0.0,0.0,39,0.00,,---,0.00,VWS V15.00,2015-08-02 18:32:00,
2015-08-02 11:37:00,77.6,50.0,28.80,South,188,0.0,1.0,38,0.00,,---,0.00,VWS V15.00,2015-08-02 18:37:00,
2015-08-02 11:42:00,76.7,47.0,28.80,South,188,0.0,0.0,35,0.00,,---,0.00,VWS V15.00,2015-08-02 18:42:00,
2015-08-02 11:47:00,76.8,47.8,28.80,South,188,3.0,3.0,36,0.00,,---,0.00,VWS V15.00,2015-08-02 18:47:00,
2015-08-02 11:52:00,77.9,50.3,28.80,South,188,0.0,0.0,38,0.00,,---,0.00,VWS V15.00,2015-08-02 18:52:00,
2015-08-02 11:57:00,78.4,47.7,28.80,South,188,0.0,1.0,34,0.00,,---,0.00,VWS V15.00,2015-08-02 18:57:00,
2015-08-02 12:02:00,78.0,47.4,28.80,South,188,1.0,1.0,34,0.00,,---,0.00,VWS V15.00,2015-08-02 19:02:00,
2015-08-02 12:07:00,78.7,48.0,28.80,South,186,0.0,1.0,34,0.00,,---,0.00,VWS V15.00,2015-08-02 19:07:00,
2015-08-02 12:12:00,78.8,48.1,28.80,SE,141,0.0,0.0,34,0.00,,---,0.00,VWS V15.00,2015-08-02 19:12:00,
2015-08-02 12:17:00,79.6,48.0,28.80,NE,38,2.0,4.0,33,0.00,,---,0.00,VWS V15.00,2015-08-02 19:17:00,
2015-08-02 12:22:00,79.2,47.7,28.80,NE,38,0.0,1.0,33,0.00,,---,0.00,VWS V15.00,2015-08-02 19:22:00,
2015-08-02 12:27:00,79.2,47.7,28.80,NE,38,0.0,1.0,33,0.00,,---,0.00,VWS V15.00,2015-08-02 19:27:00,
2015-08-02 12:32:00,79.9,49.0,28.80,NE,37,0.0,1.0,34,0.00,,---,0.00,VWS V15.00,2015-08-02 19:32:00,
2015-08-02 12:37:00,79.5,47.9,28.80,NE,37,0.0,0.0,33,0.00,,---,0.00,VWS V15.00,2015-08-02 19:37:00,
2015-08-02 12:42:00,79.3,48.5,28.80,NE,37,0.0,0.0,34,0.00,,---,0.00,VWS V15.00,2015-08-02 19:42:00,
2015-08-02 12:47:00,80.6,48.0,28.80,NE,36,1.0,4.0,32,0.00,,---,0.00,VWS V15.00,2015-08-02 19:47:00,
2015-08-02 12:52:00,80.4,47.9,28.80,NE,36,0.0,3.0,32,0.00,,---,0.00,VWS V15.00,2015-08-02 19:52:00,
2015-08-02 12:57:00,79.9,48.3,28.80,NE,36,2.0,4.0,33,0.00,,---,0.00,VWS V15.00,2015-08-02 19:57:00,
2015-08-02 13:02:00,79.6,47.2,28.80,NE,36,0.0,0.0,32,0.00,,---,0.00,VWS V15.00,2015-08-02 20:02:00,
2015-08-02 13:07:00,79.6,48.0,28.80,SW,234,3.0,5.0,33,0.00,,---,0.00,VWS V15.00,2015-08-02 20:07:00,
2015-08-02 13:12:00,79.2,52.8,28.80,ENE,74,3.0,8.0,40,0.00,,---,0.00,VWS V15.00,2015-08-02 20:12:00,
2015-08-02 13:17:00,77.0,53.4,28.81,ESE,109,0.0,5.0,44,0.00,,---,0.00,VWS V15.00,2015-08-02 20:17:00,
2015-08-02 13:22:00,76.3,52.8,28.81,SSW,202,2.0,6.0,44,0.00,,---,0.00,VWS V15.00,2015-08-02 20:22:00,
2015-08-02 13:27:00,76.4,50.3,28.81,SW,223,3.0,4.0,40,0.00,,---,0.00,VWS V15.00,2015-08-02 20:27:00,
2015-08-02 13:32:00,75.8,51.7,28.81,NNW,337,4.0,4.0,43,0.00,,---,0.00,VWS V15.00,2015-08-02 20:32:00,
2015-08-02 13:37:00,74.6,54.2,28.82,NNE,31,7.0,7.0,49,0.01,,---,0.01,VWS V15.00,2015-08-02 20:37:00,
2015-08-02 13:42:00,72.3,55.7,28.82,NE,48,15.0,18.0,56,0.01,,---,0.01,VWS V15.00,2015-08-02 20:42:00,
2015-08-02 13:52:00,67.8,56.5,28.82,North,10,12.0,12.0,67,0.03,,---,0.03,VWS V15.00,2015-08-02 20:52:00,
2015-08-02 13:57:00,67.3,56.4,28.80,NW,314,4.0,9.0,68,0.04,,---,0.04,VWS V15.00,2015-08-02 20:57:00,
2015-08-02 14:02:00,67.2,56.7,28.80,NNE,12,5.0,9.0,69,0.04,,---,0.04,VWS V15.00,2015-08-02 21:02:00,
2015-08-02 14:08:00,67.7,57.6,28.80,West,271,4.0,9.0,70,0.04,,---,0.04,VWS V15.00,2015-08-02 21:08:00,
2015-08-02 14:13:00,68.0,57.9,28.80,North,11,4.0,7.0,70,0.04,,---,0.04,VWS V15.00,2015-08-02 21:13:00,
2015-08-02 14:18:00,68.6,59.2,28.80,NNW,343,6.0,8.0,72,0.04,,---,0.04,VWS V15.00,2015-08-02 21:18:00,
2015-08-02 14:23:00,69.4,58.8,28.80,North,351,10.0,10.0,69,0.04,,---,0.04,VWS V15.00,2015-08-02 21:23:00,
2015-08-02 14:28:00,69.8,57.5,28.80,North,5,5.0,10.0,65,0.04,,---,0.04,VWS V15.00,2015-08-02 21:28:00,
2015-08-02 14:33:00,70.0,57.7,28.80,NE,40,8.0,11.0,65,0.04,,---,0.04,VWS V15.00,2015-08-02 21:33:00,
2015-08-02 14:38:00,70.2,57.9,28.80,North,360,5.0,12.0,65,0.04,,---,0.04,VWS V15.00,2015-08-02 21:38:00,
2015-08-02 14:43:00,70.6,57.8,28.79,NNE,19,10.0,11.0,64,0.04,,---,0.04,VWS V15.00,2015-08-02 21:43:00,
2015-08-02 14:48:00,71.4,56.8,28.79,NNE,12,8.0,15.0,60,0.04,,---,0.04,VWS V15.00,2015-08-02 21:48:00,
2015-08-02 14:53:00,72.3,56.2,28.79,NNE,15,9.0,12.0,57,0.04,,---,0.04,VWS V15.00,2015-08-02 21:53:00,
2015-08-02 14:58:00,72.7,56.1,28.79,North,5,8.0,13.0,56,0.04,,---,0.04,VWS V15.00,2015-08-02 21:58:00,
2015-08-02 15:03:00,73.3,56.7,28.79,North,9,10.0,10.0,56,0.00,,---,0.04,VWS V15.00,2015-08-02 22:03:00,
2015-08-02 15:08:00,73.4,55.2,28.79,NNE,22,12.0,12.0,53,0.00,,---,0.04,VWS V15.00,2015-08-02 22:08:00,
2015-08-02 15:13:00,73.1,55.0,28.79,North,9,11.0,11.0,53,0.00,,---,0.04,VWS V15.00,2015-08-02 22:13:00,
2015-08-02 15:18:00,73.2,54.0,28.79,NNW,340,7.0,12.0,51,0.00,,---,0.04,VWS V15.00,2015-08-02 22:18:00,
2015-08-02 15:23:00,73.4,54.7,28.79,NNE,15,10.0,12.0,52,0.00,,---,0.04,VWS V15.00,2015-08-02 22:23:00,
2015-08-02 15:28:00,73.8,54.0,28.78,NNE,15,11.0,11.0,50,0.00,,---,0.04,VWS V15.00,2015-08-02 22:28:00,
2015-08-02 15:33:00,74.5,53.5,28.78,North,11,11.0,11.0,48,0.00,,---,0.04,VWS V15.00,2015-08-02 22:33:00,
2015-08-02 15:38:00,75.4,53.2,28.78,North,5,4.0,14.0,46,0.00,,---,0.04,VWS V15.00,2015-08-02 22:38:00,
2015-08-02 15:43:00,75.6,54.0,28.78,NNE,17,6.0,9.0,47,0.00,,---,0.04,VWS V15.00,2015-08-02 22:43:00,
2015-08-02 15:48:00,76.4,53.5,28.78,North,5,8.0,12.0,45,0.00,,---,0.04,VWS V15.00,2015-08-02 22:48:00,
2015-08-02 15:53:00,76.2,52.1,28.78,North,9,6.0,11.0,43,0.00,,---,0.04,VWS V15.00,2015-08-02 22:53:00,
2015-08-02 15:58:00,76.9,49.4,28.78,NNE,14,5.0,11.0,38,0.00,,---,0.04,VWS V15.00,2015-08-02 22:58:00,
2015-08-02 16:03:00,77.2,51.0,28.78,North,355,10.0,11.0,40,0.00,,---,0.04,VWS V15.00,2015-08-02 23:03:00,
2015-08-02 16:08:00,76.5,51.1,28.78,NNW,345,5.0,9.0,41,0.00,,---,0.04,VWS V15.00,2015-08-02 23:08:00,
2015-08-02 16:13:00,76.5,51.1,28.78,NNE,15,8.0,10.0,41,0.00,,---,0.04,VWS V15.00,2015-08-02 23:13:00,
2015-08-02 16:18:00,76.5,51.1,28.79,NNE,26,7.0,9.0,41,0.00,,---,0.04,VWS V15.00,2015-08-02 23:18:00,
2015-08-02 16:23:00,76.5,51.1,28.79,North,360,4.0,8.0,41,0.00,,---,0.04,VWS V15.00,2015-08-02 23:23:00,
2015-08-02 16:28:00,76.2,51.5,28.79,NNE,23,6.0,10.0,42,0.00,,---,0.04,VWS V15.00,2015-08-02 23:28:00,
2015-08-02 16:33:00,75.9,51.8,28.78,NNE,14,9.0,11.0,43,0.00,,---,0.04,VWS V15.00,2015-08-02 23:33:00,
2015-08-02 16:38:00,75.5,52.1,28.78,NNE,25,4.0,9.0,44,0.00,,---,0.04,VWS V15.00,2015-08-02 23:38:00,
2015-08-02 16:43:00,75.6,52.8,28.78,NNW,347,3.0,8.0,45,0.00,,---,0.04,VWS V15.00,2015-08-02 23:43:00,
2015-08-02 16:48:00,75.6,53.4,28.78,NNW,341,5.0,11.0,46,0.00,,---,0.04,VWS V15.00,2015-08-02 23:48:00,
2015-08-02 16:53:00,75.5,53.3,28.78,NNE,28,5.0,11.0,46,0.00,,---,0.04,VWS V15.00,2015-08-02 23:53:00,
2015-08-02 16:58:00,75.4,54.4,28.78,North,5,2.0,8.0,48,0.00,,---,0.04,VWS V15.00,2015-08-02 23:58:00,
2015-08-02 17:03:00,75.2,54.2,28.77,North,5,5.0,5.0,48,0.00,,---,0.04,VWS V15.00,2015-08-03 00:03:00,
2015-08-02 17:08:00,75.3,52.5,28.77,North,360,4.0,8.0,45,0.00,,---,0.04,VWS V15.00,2015-08-03 00:08:00,
2015-08-02 17:13:00,75.1,52.3,28.77,North,360,3.0,5.0,45,0.00,,---,0.04,VWS V15.00,2015-08-03 00:13:00,
2015-08-02 17:18:00,75.5,51.5,28.77,NNW,336,2.0,3.0,43,0.00,,---,0.04,VWS V15.00,2015-08-03 00:18:00,
2015-08-02 17:23:00,76.3,51.5,28.77,North,355,2.0,5.0,42,0.00,,---,0.04,VWS V15.00,2015-08-03 00:23:00,
2015-08-02 17:28:00,76.8,50.7,28.77,NW,309,1.0,5.0,40,0.00,,---,0.04,VWS V15.00,2015-08-03 00:28:00,
2015-08-02 17:33:00,77.1,50.3,28.77,NW,321,1.0,3.0,39,0.00,,---,0.04,VWS V15.00,2015-08-03 00:33:00,
2015-08-02 17:38:00,77.0,49.5,28.77,North,355,0.0,4.0,38,0.00,,---,0.04,VWS V15.00,2015-08-03 00:38:00,
2015-08-02 17:43:00,77.2,51.0,28.77,NW,318,1.0,5.0,40,0.00,,---,0.04,VWS V15.00,2015-08-03 00:43:00,
2015-08-02 17:48:00,77.2,51.0,28.77,NNW,335,0.0,3.0,40,0.00,,---,0.04,VWS V15.00,2015-08-03 00:48:00,
2015-08-02 17:53:00,77.3,51.1,28.77,North,10,3.0,8.0,40,0.00,,---,0.04,VWS V15.00,2015-08-03 00:53:00,
2015-08-02 17:58:00,77.5,51.3,28.77,North,11,4.0,6.0,40,0.00,,---,0.04,VWS V15.00,2015-08-03 00:58:00,
2015-08-02 18:03:00,77.3,50.4,28.77,NW,306,3.0,7.0,39,0.00,,---,0.04,VWS V15.00,2015-08-03 01:03:00,
2015-08-02 18:08:00,77.1,50.3,28.76,North,355,5.0,5.0,39,0.00,,---,0.04,VWS V15.00,2015-08-03 01:08:00,
2015-08-02 18:13:00,76.5,49.0,28.76,NNW,338,0.0,5.0,38,0.00,,---,0.04,VWS V15.00,2015-08-03 01:13:00,
2015-08-02 18:18:00,76.3,48.8,28.76,NW,326,2.0,5.0,38,0.00,,---,0.04,VWS V15.00,2015-08-03 01:18:00,
2015-08-02 18:23:00,76.2,48.8,28.76,North,355,0.0,2.0,38,0.00,,---,0.04,VWS V15.00,2015-08-03 01:23:00,
2015-08-02 18:28:00,76.1,49.4,28.76,NNW,348,3.0,3.0,39,0.00,,---,0.04,VWS V15.00,2015-08-03 01:28:00,
2015-08-02 18:33:00,76.1,48.7,28.77,NW,326,2.0,3.0,38,0.00,,---,0.04,VWS V15.00,2015-08-03 01:33:00,
2015-08-02 18:38:00,76.0,48.6,28.76,NNW,342,4.0,4.0,38,0.00,,---,0.04,VWS V15.00,2015-08-03 01:38:00,
2015-08-02 18:43:00,75.9,48.5,28.77,North,355,2.0,5.0,38,0.00,,---,0.04,VWS V15.00,2015-08-03 01:43:00,
2015-08-02 18:48:00,75.8,48.4,28.77,North,355,6.0,6.0,38,0.00,,---,0.04,VWS V15.00,2015-08-03 01:48:00,
2015-08-02 18:53:00,75.8,48.4,28.77,NNW,337,4.0,5.0,38,0.00,,---,0.04,VWS V15.00,2015-08-03 01:53:00,
2015-08-02 18:58:00,75.5,48.1,28.77,NNW,328,0.0,4.0,38,0.00,,---,0.04,VWS V15.00,2015-08-03 01:58:00,
2015-08-02 19:03:00,75.4,48.0,28.77,North,355,0.0,6.0,38,0.00,,---,0.04,VWS V15.00,2015-08-03 02:03:00,
2015-08-02 19:08:00,75.2,48.6,28.77,NNW,342,0.0,3.0,39,0.00,,---,0.04,VWS V15.00,2015-08-03 02:08:00,
2015-08-02 19:13:00,74.9,48.3,28.77,NNW,343,0.0,1.0,39,0.00,,---,0.04,VWS V15.00,2015-08-03 02:13:00,
2015-08-02 19:18:00,74.7,48.8,28.77,NNW,328,2.0,2.0,40,0.00,,---,0.04,VWS V15.00,2015-08-03 02:18:00,
2015-08-02 19:23:00,74.5,48.6,28.77,NNW,331,0.0,4.0,40,0.00,,---,0.04,VWS V15.00,2015-08-03 02:23:00,
2015-08-02 19:28:00,74.3,49.1,28.77,NNW,346,5.0,5.0,41,0.00,,---,0.04,VWS V15.00,2015-08-03 02:28:00,
2015-08-02 19:33:00,74.2,49.0,28.77,NNW,340,5.0,6.0,41,0.00,,---,0.04,VWS V15.00,2015-08-03 02:33:00,
2015-08-02 19:38:00,74.0,49.5,28.77,NNW,340,3.0,5.0,42,0.00,,---,0.04,VWS V15.00,2015-08-03 02:38:00,
2015-08-02 19:43:00,73.8,49.3,28.78,North,9,0.0,5.0,42,0.00,,---,0.04,VWS V15.00,2015-08-03 02:43:00,
2015-08-02 19:48:00,73.5,49.7,28.78,North,355,3.0,4.0,43,0.00,,---,0.04,VWS V15.00,2015-08-03 02:48:00,
2015-08-02 19:53:00,73.3,50.1,28.78,North,355,3.0,6.0,44,0.00,,---,0.04,VWS V15.00,2015-08-03 02:53:00,
2015-08-02 19:58:00,72.9,50.3,28.78,North,355,1.0,4.0,45,0.00,,---,0.04,VWS V15.00,2015-08-03 02:58:00,
2015-08-02 20:03:00,72.6,50.1,28.78,North,9,3.0,4.0,45,0.00,,---,0.04,VWS V15.00,2015-08-03 03:03:00,
2015-08-02 20:08:00,72.4,49.9,28.78,North,355,4.0,5.0,45,0.00,,---,0.04,VWS V15.00,2015-08-03 03:08:00,
2015-08-02 20:13:00,72.1,50.2,28.78,NNW,344,3.0,4.0,46,0.00,,---,0.04,VWS V15.00,2015-08-03 03:13:00,
2015-08-02 20:18:00,72.0,49.5,28.78,North,9,3.0,5.0,45,0.00,,---,0.04,VWS V15.00,2015-08-03 03:18:00,
2015-08-02 20:23:00,71.8,49.3,28.78,North,5,3.0,6.0,45,0.00,,---,0.04,VWS V15.00,2015-08-03 03:23:00,